createdAt,value
2017-09-29T00:00:13.499Z,0
2017-09-29T00:00:54.036Z,0
2017-09-29T00:01:34.583Z,0
2017-09-29T00:02:15.122Z,0
2017-09-29T00:02:55.646Z,0
2017-09-29T00:03:36.179Z,0
2017-09-29T00:04:16.719Z,0
2017-09-29T00:04:57.269Z,0
2017-09-29T00:05:37.790Z,0
2017-09-29T00:06:18.320Z,0
2017-09-29T00:06:58.865Z,0
2017-09-29T00:07:39.395Z,0
2017-09-29T00:08:19.928Z,0
2017-09-29T00:09:00.472Z,0
2017-09-29T00:09:41.015Z,0
2017-09-29T00:10:21.538Z,0
2017-09-29T00:11:02.061Z,0
2017-09-29T00:11:42.599Z,0
2017-09-29T00:12:23.139Z,0
2017-09-29T00:13:03.681Z,0
2017-09-29T00:13:44.215Z,0
2017-09-29T00:14:24.741Z,0
2017-09-29T00:15:05.296Z,0
2017-09-29T00:15:45.785Z,0
2017-09-29T00:16:26.329Z,0
2017-09-29T00:17:06.865Z,0
2017-09-29T00:17:47.397Z,0
2017-09-29T00:18:27.928Z,0
2017-09-29T00:19:08.456Z,0
2017-09-29T00:19:48.982Z,0
2017-09-29T00:20:29.522Z,0
2017-09-29T00:21:10.053Z,0
2017-09-29T00:21:50.607Z,0
2017-09-29T00:22:31.136Z,0
2017-09-29T00:23:11.690Z,0
2017-09-29T00:23:52.216Z,0
2017-09-29T00:24:32.757Z,0
2017-09-29T00:25:13.288Z,0
2017-09-29T00:25:53.832Z,0
2017-09-29T00:26:34.392Z,0
2017-09-29T00:27:14.872Z,0
2017-09-29T00:27:55.402Z,0
2017-09-29T00:28:35.936Z,0
2017-09-29T00:29:16.496Z,0
2017-09-29T00:29:57.044Z,0
2017-09-29T00:30:37.594Z,0
2017-09-29T00:31:18.118Z,0
2017-09-29T00:31:58.653Z,0
2017-09-29T00:32:39.191Z,0
2017-09-29T00:33:19.710Z,0
2017-09-29T00:34:00.241Z,0
2017-09-29T00:34:40.793Z,0
2017-09-29T00:35:21.297Z,0
2017-09-29T00:36:01.845Z,0
2017-09-29T00:36:42.375Z,0
2017-09-29T00:37:22.906Z,0
2017-09-29T00:38:03.448Z,0
2017-09-29T00:38:43.993Z,0
2017-09-29T00:39:24.533Z,0
2017-09-29T00:40:05.066Z,0
2017-09-29T00:40:45.614Z,0
2017-09-29T00:41:26.143Z,0
2017-09-29T00:42:06.665Z,0
2017-09-29T00:42:47.197Z,0
2017-09-29T00:43:27.731Z,0
2017-09-29T00:44:08.266Z,0
2017-09-29T00:44:48.802Z,0
2017-09-29T00:45:29.343Z,0
2017-09-29T00:46:09.866Z,0
2017-09-29T00:46:50.416Z,0
2017-09-29T00:47:30.953Z,0
2017-09-29T00:48:11.485Z,0
2017-09-29T00:48:52.003Z,0
2017-09-29T00:49:32.540Z,0
2017-09-29T00:50:13.064Z,0
2017-09-29T00:50:53.600Z,0
2017-09-29T00:51:34.131Z,0
2017-09-29T00:52:14.673Z,0
2017-09-29T00:52:55.222Z,0
2017-09-29T00:53:35.749Z,0
2017-09-29T00:54:16.271Z,0
2017-09-29T00:54:56.815Z,0
2017-09-29T00:55:37.343Z,0
2017-09-29T00:56:17.856Z,0
2017-09-29T00:56:58.374Z,0
2017-09-29T00:57:38.912Z,0
2017-09-29T00:58:19.441Z,0
2017-09-29T00:58:59.971Z,0
2017-09-29T00:59:40.479Z,0
2017-09-29T01:00:21.022Z,0
2017-09-29T01:01:01.620Z,0
2017-09-29T01:01:42.135Z,0
2017-09-29T01:02:24.323Z,0
2017-09-29T01:03:04.854Z,0
2017-09-29T01:03:45.399Z,0
2017-09-29T01:04:25.905Z,0
2017-09-29T01:05:06.469Z,0
2017-09-29T01:05:46.988Z,0
2017-09-29T01:06:27.521Z,0
2017-09-29T01:07:08.070Z,0
2017-09-29T01:07:48.608Z,0
2017-09-29T01:08:29.155Z,0
2017-09-29T01:09:09.696Z,0
2017-09-29T01:09:50.230Z,0
2017-09-29T01:10:30.759Z,0
2017-09-29T01:11:11.281Z,0
2017-09-29T01:11:51.818Z,0
2017-09-29T01:12:32.356Z,0
2017-09-29T01:13:12.884Z,0
2017-09-29T01:13:53.411Z,0
2017-09-29T01:14:33.955Z,0
2017-09-29T01:15:14.473Z,0
2017-09-29T01:15:55.019Z,0
2017-09-29T01:16:35.564Z,0
2017-09-29T01:17:16.104Z,0
2017-09-29T01:17:56.636Z,0
2017-09-29T01:18:37.184Z,0
2017-09-29T01:19:17.707Z,0
2017-09-29T01:19:58.239Z,0
2017-09-29T01:20:38.759Z,0
2017-09-29T01:21:19.285Z,0
2017-09-29T01:21:59.823Z,0
2017-09-29T01:22:40.340Z,0
2017-09-29T01:23:20.876Z,0
2017-09-29T01:24:01.407Z,0
2017-09-29T01:24:41.934Z,0
2017-09-29T01:25:22.461Z,0
2017-09-29T01:26:02.993Z,0
2017-09-29T01:26:43.542Z,0
2017-09-29T01:27:24.076Z,0
2017-09-29T01:28:04.620Z,0
2017-09-29T01:28:45.154Z,0
2017-09-29T01:29:25.685Z,0
2017-09-29T01:30:06.219Z,0
2017-09-29T01:30:46.745Z,0
2017-09-29T01:31:27.277Z,0
2017-09-29T01:32:07.814Z,0
2017-09-29T01:32:48.333Z,0
2017-09-29T01:33:28.879Z,0
2017-09-29T01:34:09.412Z,0
2017-09-29T01:34:49.938Z,0
2017-09-29T01:35:30.492Z,0
2017-09-29T01:36:11.034Z,0
2017-09-29T01:36:51.576Z,0
2017-09-29T01:37:32.117Z,0
2017-09-29T01:38:12.661Z,0
2017-09-29T01:38:53.181Z,0
2017-09-29T01:39:33.722Z,0
2017-09-29T01:40:14.253Z,0
2017-09-29T01:40:54.785Z,0
2017-09-29T01:41:35.321Z,0
2017-09-29T01:42:15.845Z,0
2017-09-29T01:42:56.384Z,0
2017-09-29T01:43:36.909Z,0
2017-09-29T01:44:17.437Z,0
2017-09-29T01:44:57.984Z,0
2017-09-29T01:45:38.525Z,0
2017-09-29T01:46:19.045Z,0
2017-09-29T01:46:59.592Z,0
2017-09-29T01:47:40.122Z,0
2017-09-29T01:48:20.657Z,0
2017-09-29T01:49:01.189Z,0
2017-09-29T01:49:41.736Z,0
2017-09-29T01:50:22.276Z,0
2017-09-29T01:51:02.812Z,0
2017-09-29T01:51:43.339Z,0
2017-09-29T01:52:23.877Z,0
2017-09-29T01:53:04.411Z,0
2017-09-29T01:53:44.945Z,0
2017-09-29T01:54:25.484Z,0
2017-09-29T01:55:06.011Z,0
2017-09-29T01:55:46.551Z,0
2017-09-29T01:56:27.086Z,0
2017-09-29T01:57:07.602Z,0
2017-09-29T01:57:48.140Z,0
2017-09-29T01:58:28.669Z,0
2017-09-29T01:59:09.178Z,0
2017-09-29T01:59:49.699Z,0
2017-09-29T02:00:30.258Z,0
2017-09-29T02:01:10.788Z,0
2017-09-29T02:01:51.332Z,0
2017-09-29T02:02:31.850Z,0
2017-09-29T02:03:12.391Z,0
2017-09-29T02:03:52.907Z,0
2017-09-29T02:04:33.446Z,0
2017-09-29T02:05:13.972Z,0
2017-09-29T02:05:54.496Z,0
2017-09-29T02:06:35.032Z,0
2017-09-29T02:07:15.551Z,0
2017-09-29T02:07:56.097Z,0
2017-09-29T02:08:36.626Z,0
2017-09-29T02:09:17.171Z,0
2017-09-29T02:09:57.717Z,0
2017-09-29T02:10:38.258Z,0
2017-09-29T02:11:18.784Z,0
2017-09-29T02:11:59.314Z,0
2017-09-29T02:12:39.850Z,0
2017-09-29T02:13:20.377Z,0
2017-09-29T02:14:00.916Z,0
2017-09-29T02:14:41.427Z,0
2017-09-29T02:15:21.962Z,0
2017-09-29T02:16:02.505Z,0
2017-09-29T02:16:43.023Z,0
2017-09-29T02:17:23.554Z,0
2017-09-29T02:18:04.093Z,0
2017-09-29T02:18:44.623Z,0
2017-09-29T02:19:25.169Z,0
2017-09-29T02:20:05.695Z,0
2017-09-29T02:20:46.235Z,0
2017-09-29T02:21:26.774Z,0
2017-09-29T02:22:07.313Z,0
2017-09-29T02:22:47.854Z,0
2017-09-29T02:23:28.390Z,0
2017-09-29T02:24:08.917Z,0
2017-09-29T02:24:49.469Z,0
2017-09-29T02:25:30.006Z,0
2017-09-29T02:26:10.543Z,0
2017-09-29T02:26:51.082Z,0
2017-09-29T02:27:31.593Z,0
2017-09-29T02:28:12.132Z,0
2017-09-29T02:28:52.674Z,0
2017-09-29T02:29:33.216Z,0
2017-09-29T02:30:13.757Z,0
2017-09-29T02:30:54.298Z,0
2017-09-29T02:31:34.833Z,0
2017-09-29T02:32:15.386Z,0
2017-09-29T02:32:55.935Z,0
2017-09-29T02:33:36.445Z,0
2017-09-29T02:34:16.987Z,0
2017-09-29T02:34:57.526Z,0
2017-09-29T02:35:38.060Z,0
2017-09-29T02:36:18.605Z,0
2017-09-29T02:36:59.125Z,0
2017-09-29T02:37:39.666Z,0
2017-09-29T02:38:20.198Z,0
2017-09-29T02:39:00.735Z,0
2017-09-29T02:39:41.274Z,0
2017-09-29T02:40:21.815Z,0
2017-09-29T02:41:02.355Z,0
2017-09-29T02:41:42.890Z,0
2017-09-29T02:42:23.421Z,0
2017-09-29T02:43:03.965Z,0
2017-09-29T02:43:44.487Z,0
2017-09-29T02:44:25.028Z,0
2017-09-29T02:45:05.557Z,0
2017-09-29T02:45:46.099Z,0
2017-09-29T02:46:26.622Z,0
2017-09-29T02:47:07.166Z,0
2017-09-29T02:47:47.694Z,0
2017-09-29T02:48:28.226Z,0
2017-09-29T02:49:08.758Z,0
2017-09-29T02:49:49.304Z,0
2017-09-29T02:50:29.825Z,0
2017-09-29T02:51:10.377Z,0
2017-09-29T02:51:50.893Z,0
2017-09-29T02:52:31.436Z,0
2017-09-29T02:53:11.972Z,0
2017-09-29T02:53:52.505Z,0
2017-09-29T02:54:33.043Z,0
2017-09-29T02:55:13.568Z,0
2017-09-29T02:55:54.092Z,0
2017-09-29T02:56:34.642Z,0
2017-09-29T02:57:15.185Z,0
2017-09-29T02:57:55.711Z,0
2017-09-29T02:58:36.252Z,0
2017-09-29T02:59:16.770Z,0
2017-09-29T02:59:57.311Z,0
2017-09-29T03:00:37.848Z,0
2017-09-29T03:01:18.391Z,0
2017-09-29T03:01:58.932Z,0
2017-09-29T03:02:39.473Z,0
2017-09-29T03:03:20.017Z,0
2017-09-29T03:04:00.559Z,0
2017-09-29T03:04:41.089Z,0
2017-09-29T03:05:21.610Z,0
2017-09-29T03:06:02.148Z,0
2017-09-29T03:06:42.685Z,0
2017-09-29T03:07:23.216Z,0
2017-09-29T03:08:03.761Z,0
2017-09-29T03:08:44.296Z,0
2017-09-29T03:09:24.857Z,0
2017-09-29T03:10:05.397Z,0
2017-09-29T03:10:45.935Z,0
2017-09-29T03:11:26.506Z,0
2017-09-29T03:12:07.047Z,0
2017-09-29T03:12:47.577Z,0
2017-09-29T03:13:28.115Z,0
2017-09-29T03:14:08.653Z,0
2017-09-29T03:14:49.194Z,0
2017-09-29T03:15:29.736Z,0
2017-09-29T03:16:10.277Z,0
2017-09-29T03:16:50.815Z,0
2017-09-29T03:17:31.341Z,0
2017-09-29T03:18:11.878Z,0
2017-09-29T03:18:52.412Z,0
2017-09-29T03:19:32.960Z,0
2017-09-29T03:20:13.481Z,0
2017-09-29T03:20:54.006Z,0
2017-09-29T03:21:34.534Z,0
2017-09-29T03:22:15.088Z,0
2017-09-29T03:22:55.623Z,0
2017-09-29T03:23:36.161Z,0
2017-09-29T03:24:16.704Z,0
2017-09-29T03:24:57.242Z,0
2017-09-29T03:25:37.789Z,0
2017-09-29T03:26:18.330Z,0
2017-09-29T03:26:58.871Z,0
2017-09-29T03:27:39.401Z,0
2017-09-29T03:28:19.942Z,0
2017-09-29T03:29:00.467Z,0
2017-09-29T03:29:41.006Z,0
2017-09-29T03:30:21.553Z,0
2017-09-29T03:31:02.098Z,0
2017-09-29T03:31:42.635Z,0
2017-09-29T03:32:23.168Z,0
2017-09-29T03:33:03.695Z,0
2017-09-29T03:33:44.229Z,0
2017-09-29T03:34:24.773Z,0
2017-09-29T03:35:05.316Z,0
2017-09-29T03:35:45.854Z,0
2017-09-29T03:36:26.388Z,0
2017-09-29T03:37:06.927Z,0
2017-09-29T03:37:47.456Z,0
2017-09-29T03:38:27.993Z,0
2017-09-29T03:39:08.535Z,0
2017-09-29T03:39:49.078Z,0
2017-09-29T03:40:29.617Z,0
2017-09-29T03:41:10.160Z,0
2017-09-29T03:41:50.691Z,0
2017-09-29T03:42:31.223Z,0
2017-09-29T03:43:11.761Z,0
2017-09-29T03:43:52.313Z,0
2017-09-29T03:44:32.853Z,0
2017-09-29T03:45:13.386Z,0
2017-09-29T03:45:53.932Z,0
2017-09-29T03:46:34.473Z,0
2017-09-29T03:47:15.015Z,0
2017-09-29T03:47:55.548Z,0
2017-09-29T03:48:36.094Z,0
2017-09-29T03:49:16.631Z,0
2017-09-29T03:49:57.178Z,0
2017-09-29T03:50:37.711Z,0
2017-09-29T03:51:18.391Z,0
2017-09-29T03:51:58.946Z,0
2017-09-29T03:52:39.458Z,0
2017-09-29T03:53:19.995Z,0
2017-09-29T03:54:00.535Z,0
2017-09-29T03:54:41.077Z,0
2017-09-29T03:55:21.619Z,0
2017-09-29T03:56:02.182Z,0
2017-09-29T03:56:42.720Z,0
2017-09-29T03:57:23.258Z,0
2017-09-29T03:58:03.795Z,0
2017-09-29T03:58:44.329Z,0
2017-09-29T03:59:24.863Z,0
2017-09-29T04:00:05.430Z,0
2017-09-29T04:00:45.966Z,0
2017-09-29T04:01:26.514Z,0
2017-09-29T04:02:07.052Z,0
2017-09-29T04:02:47.592Z,0
2017-09-29T04:03:28.128Z,0
2017-09-29T04:04:08.667Z,0
2017-09-29T04:04:49.197Z,0
2017-09-29T04:05:29.730Z,0
2017-09-29T04:06:10.983Z,0
2017-09-29T04:06:51.535Z,0
2017-09-29T04:07:32.075Z,0
2017-09-29T04:08:12.823Z,0
2017-09-29T04:08:53.686Z,0
2017-09-29T04:09:34.191Z,0
2017-09-29T04:10:14.703Z,0
2017-09-29T04:10:55.241Z,0
2017-09-29T04:11:35.769Z,0
2017-09-29T04:12:16.295Z,0
2017-09-29T04:12:56.823Z,0
2017-09-29T04:13:37.351Z,0
2017-09-29T04:14:17.892Z,0
2017-09-29T04:14:58.428Z,0
2017-09-29T04:15:38.962Z,0
2017-09-29T04:16:19.541Z,0
2017-09-29T04:17:00.205Z,0
2017-09-29T04:17:42.153Z,0
2017-09-29T04:18:22.777Z,0
2017-09-29T04:19:03.342Z,0
2017-09-29T04:19:43.866Z,0
2017-09-29T04:20:24.392Z,0
2017-09-29T04:21:04.936Z,0
2017-09-29T04:21:45.478Z,0
2017-09-29T04:22:26.009Z,0
2017-09-29T04:23:06.572Z,0
2017-09-29T04:23:47.118Z,0
2017-09-29T04:24:27.658Z,0
2017-09-29T04:25:08.190Z,0
2017-09-29T04:25:48.733Z,0
2017-09-29T04:26:29.261Z,0
2017-09-29T04:27:09.795Z,0
2017-09-29T04:27:50.335Z,0
2017-09-29T04:28:30.871Z,0
2017-09-29T04:29:11.388Z,0
2017-09-29T04:29:51.919Z,0
2017-09-29T04:30:32.448Z,0
2017-09-29T04:31:12.980Z,0
2017-09-29T04:31:53.515Z,0
2017-09-29T04:32:34.059Z,0
2017-09-29T04:33:14.588Z,0
2017-09-29T04:33:55.135Z,0
2017-09-29T04:34:35.652Z,0
2017-09-29T04:35:17.035Z,0
2017-09-29T04:35:57.656Z,0
2017-09-29T04:36:38.198Z,0
2017-09-29T04:37:18.765Z,0
2017-09-29T04:37:59.258Z,0
2017-09-29T04:38:39.782Z,0
2017-09-29T04:39:20.332Z,0
2017-09-29T04:40:00.870Z,0
2017-09-29T04:40:41.411Z,0
2017-09-29T04:41:21.940Z,0
2017-09-29T04:42:02.440Z,0
2017-09-29T04:42:42.959Z,0
2017-09-29T04:43:23.475Z,0
2017-09-29T04:44:04.014Z,0
2017-09-29T04:44:44.544Z,0
2017-09-29T04:45:25.080Z,0
2017-09-29T04:46:05.650Z,0
2017-09-29T04:46:46.139Z,0
2017-09-29T04:47:26.641Z,0
2017-09-29T04:48:07.166Z,0
2017-09-29T04:48:47.733Z,0
2017-09-29T04:49:29.074Z,0
2017-09-29T04:50:16.048Z,0
2017-09-29T04:50:56.575Z,0
2017-09-29T04:51:37.112Z,0
2017-09-29T04:52:17.650Z,0
2017-09-29T04:52:58.231Z,0
2017-09-29T04:53:38.726Z,0
2017-09-29T04:54:19.262Z,0
2017-09-29T04:54:59.779Z,0
2017-09-29T04:55:40.324Z,0
2017-09-29T04:56:20.811Z,0
2017-09-29T04:57:01.300Z,0
2017-09-29T04:57:41.819Z,0
2017-09-29T04:58:22.307Z,0
2017-09-29T04:59:02.836Z,0
2017-09-29T04:59:43.334Z,0
2017-09-29T05:00:23.846Z,0
2017-09-29T05:01:04.388Z,0
2017-09-29T05:01:44.925Z,0
2017-09-29T05:02:25.444Z,0
2017-09-29T05:03:05.944Z,0
2017-09-29T05:03:46.584Z,0
2017-09-29T05:04:27.131Z,0
2017-09-29T05:05:07.668Z,0
2017-09-29T05:05:48.202Z,4
2017-09-29T05:06:28.749Z,4
2017-09-29T05:07:09.282Z,0
2017-09-29T05:07:49.821Z,4
2017-09-29T05:08:30.366Z,4
2017-09-29T05:09:10.906Z,4
2017-09-29T05:09:51.444Z,4
2017-09-29T05:10:31.979Z,4
2017-09-29T05:11:12.519Z,4
2017-09-29T05:11:53.058Z,8
2017-09-29T05:12:33.596Z,8
2017-09-29T05:13:14.132Z,4
2017-09-29T05:13:54.655Z,8
2017-09-29T05:14:35.318Z,8
2017-09-29T05:15:15.951Z,8
2017-09-29T05:15:56.485Z,8
2017-09-29T05:16:37.030Z,12
2017-09-29T05:17:17.558Z,8
2017-09-29T05:17:58.097Z,12
2017-09-29T05:18:38.634Z,16
2017-09-29T05:19:19.172Z,16
2017-09-29T05:19:59.699Z,16
2017-09-29T05:20:40.239Z,20
2017-09-29T05:21:20.783Z,20
2017-09-29T05:22:01.318Z,20
2017-09-29T05:22:41.870Z,20
2017-09-29T05:23:22.409Z,20
2017-09-29T05:24:02.950Z,24
2017-09-29T05:24:43.492Z,24
2017-09-29T05:25:24.030Z,28
2017-09-29T05:26:04.569Z,28
2017-09-29T05:26:45.114Z,28
2017-09-29T05:27:25.657Z,32
2017-09-29T05:28:06.196Z,28
2017-09-29T05:28:46.742Z,28
2017-09-29T05:29:27.310Z,32
2017-09-29T05:30:07.851Z,36
2017-09-29T05:30:48.399Z,36
2017-09-29T05:31:28.942Z,40
2017-09-29T05:32:09.479Z,52
2017-09-29T05:32:50.019Z,60
2017-09-29T05:33:30.559Z,72
2017-09-29T05:34:11.096Z,76
2017-09-29T05:34:51.638Z,88
2017-09-29T05:35:32.203Z,100
2017-09-29T05:36:12.738Z,108
2017-09-29T05:36:53.281Z,120
2017-09-29T05:37:33.826Z,128
2017-09-29T05:38:14.369Z,136
2017-09-29T05:38:54.885Z,144
2017-09-29T05:39:35.424Z,156
2017-09-29T05:40:15.972Z,168
2017-09-29T05:40:56.506Z,180
2017-09-29T05:41:37.050Z,192
2017-09-29T05:42:17.624Z,200
2017-09-29T05:42:58.133Z,200
2017-09-29T05:43:38.674Z,204
2017-09-29T05:44:19.214Z,208
2017-09-29T05:44:59.765Z,208
2017-09-29T05:45:40.307Z,208
2017-09-29T05:46:20.844Z,208
2017-09-29T05:47:01.366Z,208
2017-09-29T05:47:41.911Z,208
2017-09-29T05:48:22.453Z,204
2017-09-29T05:49:02.991Z,200
2017-09-29T05:49:43.532Z,196
2017-09-29T05:50:24.070Z,192
2017-09-29T05:51:04.634Z,196
2017-09-29T05:51:45.172Z,200
2017-09-29T05:52:25.716Z,208
2017-09-29T05:53:06.254Z,212
2017-09-29T05:53:46.816Z,216
2017-09-29T05:54:27.358Z,216
2017-09-29T05:55:07.895Z,212
2017-09-29T05:55:48.491Z,204
2017-09-29T05:56:29.027Z,208
2017-09-29T05:57:09.548Z,220
2017-09-29T05:57:50.088Z,236
2017-09-29T05:58:30.622Z,236
2017-09-29T05:59:11.163Z,240
2017-09-29T05:59:51.703Z,248
2017-09-29T06:00:32.253Z,268
2017-09-29T06:01:12.797Z,300
2017-09-29T06:01:53.346Z,344
2017-09-29T06:02:33.883Z,392
2017-09-29T06:03:14.424Z,424
2017-09-29T06:03:54.963Z,456
2017-09-29T06:04:35.504Z,480
2017-09-29T06:05:16.042Z,492
2017-09-29T06:05:56.582Z,516
2017-09-29T06:06:37.133Z,548
2017-09-29T06:07:17.674Z,584
2017-09-29T06:07:58.215Z,616
2017-09-29T06:08:38.755Z,632
2017-09-29T06:09:19.291Z,660
2017-09-29T06:09:59.842Z,692
2017-09-29T06:10:40.380Z,728
2017-09-29T06:11:20.922Z,752
2017-09-29T06:12:01.460Z,760
2017-09-29T06:12:42.000Z,772
2017-09-29T06:13:22.538Z,784
2017-09-29T06:14:03.089Z,804
2017-09-29T06:14:43.632Z,828
2017-09-29T06:15:24.171Z,856
2017-09-29T06:16:04.710Z,880
2017-09-29T06:16:45.250Z,908
2017-09-29T06:17:25.821Z,952
2017-09-29T06:18:06.352Z,1028
2017-09-29T06:18:46.900Z,1128
2017-09-29T06:19:27.433Z,1220
2017-09-29T06:20:07.973Z,1296
2017-09-29T06:20:48.514Z,1356
2017-09-29T06:21:29.052Z,1400
2017-09-29T06:22:09.588Z,1448
2017-09-29T06:22:50.128Z,1504
2017-09-29T06:23:30.666Z,1532
2017-09-29T06:24:11.205Z,1584
2017-09-29T06:24:51.744Z,1648
2017-09-29T06:25:32.287Z,1688
2017-09-29T06:26:12.820Z,1700
2017-09-29T06:26:53.359Z,1724
2017-09-29T06:27:33.894Z,1740
2017-09-29T06:28:14.445Z,1732
2017-09-29T06:28:54.983Z,1744
2017-09-29T06:29:35.525Z,1764
2017-09-29T06:30:16.066Z,1788
2017-09-29T06:30:56.600Z,1804
2017-09-29T06:31:37.153Z,1832
2017-09-29T06:32:17.693Z,1848
2017-09-29T06:32:58.232Z,1872
2017-09-29T06:33:38.775Z,1916
2017-09-29T06:34:19.314Z,1948
2017-09-29T06:34:59.855Z,1976
2017-09-29T06:35:40.394Z,1992
2017-09-29T06:36:20.942Z,1996
2017-09-29T06:37:01.483Z,2004
2017-09-29T06:37:42.023Z,2020
2017-09-29T06:38:22.570Z,2036
2017-09-29T06:39:03.112Z,2048
2017-09-29T06:39:43.689Z,2068
2017-09-29T06:40:24.223Z,2100
2017-09-29T06:41:04.764Z,2128
2017-09-29T06:41:45.302Z,2156
2017-09-29T06:42:25.840Z,2172
2017-09-29T06:43:06.383Z,2196
2017-09-29T06:43:46.925Z,2212
2017-09-29T06:44:27.466Z,2220
2017-09-29T06:45:08.011Z,2244
2017-09-29T06:45:48.550Z,2268
2017-09-29T06:46:29.096Z,2276
2017-09-29T06:47:09.631Z,2284
2017-09-29T06:47:50.175Z,2296
2017-09-29T06:48:30.708Z,2316
2017-09-29T06:49:11.250Z,2324
2017-09-29T06:49:51.793Z,2324
2017-09-29T06:50:32.331Z,2312
2017-09-29T06:51:12.870Z,2308
2017-09-29T06:51:53.412Z,2308
2017-09-29T06:52:33.955Z,2312
2017-09-29T06:53:14.498Z,2324
2017-09-29T06:53:55.035Z,2336
2017-09-29T06:54:35.576Z,2356
2017-09-29T06:55:16.116Z,2368
2017-09-29T06:55:56.647Z,2384
2017-09-29T06:56:37.187Z,2412
2017-09-29T06:57:17.728Z,2452
2017-09-29T06:57:58.267Z,2508
2017-09-29T06:58:38.803Z,2564
2017-09-29T06:59:19.340Z,2588
2017-09-29T06:59:59.881Z,2608
2017-09-29T07:00:40.419Z,2664
2017-09-29T07:01:20.961Z,2720
2017-09-29T07:02:01.495Z,2756
2017-09-29T07:02:42.035Z,2780
2017-09-29T07:03:22.582Z,2780
2017-09-29T07:04:03.121Z,2728
2017-09-29T07:04:43.651Z,2736
2017-09-29T07:05:24.208Z,2736
2017-09-29T07:06:04.750Z,2764
2017-09-29T07:06:45.289Z,2800
2017-09-29T07:07:25.828Z,2796
2017-09-29T07:08:06.362Z,2804
2017-09-29T07:08:46.905Z,2820
2017-09-29T07:09:27.444Z,2864
2017-09-29T07:10:07.985Z,2892
2017-09-29T07:10:48.530Z,2932
2017-09-29T07:11:29.057Z,2980
2017-09-29T07:12:09.604Z,2980
2017-09-29T07:12:50.149Z,2984
2017-09-29T07:13:30.695Z,2968
2017-09-29T07:14:11.233Z,2980
2017-09-29T07:14:51.770Z,3012
2017-09-29T07:15:32.318Z,2988
2017-09-29T07:16:12.856Z,3000
2017-09-29T07:16:53.416Z,3000
2017-09-29T07:17:33.953Z,2992
2017-09-29T07:18:14.494Z,3024
2017-09-29T07:18:55.024Z,3048
2017-09-29T07:19:35.567Z,2988
2017-09-29T07:20:16.110Z,2956
2017-09-29T07:20:56.643Z,2964
2017-09-29T07:21:37.183Z,3044
2017-09-29T07:22:17.724Z,3108
2017-09-29T07:22:58.261Z,3168
2017-09-29T07:23:38.802Z,3172
2017-09-29T07:24:19.343Z,3140
2017-09-29T07:24:59.882Z,3148
2017-09-29T07:25:40.428Z,3240
2017-09-29T07:26:20.966Z,3348
2017-09-29T07:27:01.518Z,3344
2017-09-29T07:27:42.047Z,3348
2017-09-29T07:28:22.590Z,3356
2017-09-29T07:29:03.129Z,3376
2017-09-29T07:29:43.669Z,3368
2017-09-29T07:30:24.207Z,3360
2017-09-29T07:31:04.748Z,3340
2017-09-29T07:31:45.289Z,3348
2017-09-29T07:32:25.835Z,3380
2017-09-29T07:33:06.375Z,3444
2017-09-29T07:33:46.920Z,3548
2017-09-29T07:34:27.460Z,3528
2017-09-29T07:35:08.011Z,3504
2017-09-29T07:35:48.537Z,3448
2017-09-29T07:36:29.083Z,3400
2017-09-29T07:37:09.621Z,3340
2017-09-29T07:37:50.168Z,3284
2017-09-29T07:38:30.715Z,3264
2017-09-29T07:39:11.266Z,3264
2017-09-29T07:39:51.794Z,3248
2017-09-29T07:40:32.342Z,3224
2017-09-29T07:41:12.881Z,3232
2017-09-29T07:41:53.422Z,3228
2017-09-29T07:42:33.962Z,3192
2017-09-29T07:43:14.499Z,3152
2017-09-29T07:43:55.035Z,3128
2017-09-29T07:44:35.575Z,3128
2017-09-29T07:45:16.122Z,3084
2017-09-29T07:45:56.653Z,3024
2017-09-29T07:46:37.190Z,2932
2017-09-29T07:47:17.756Z,2832
2017-09-29T07:47:58.311Z,2760
2017-09-29T07:48:38.853Z,2640
2017-09-29T07:49:19.391Z,2556
2017-09-29T07:49:59.940Z,2492
2017-09-29T07:50:40.471Z,2444
2017-09-29T07:51:21.011Z,2388
2017-09-29T07:52:01.548Z,2304
2017-09-29T07:52:42.092Z,2248
2017-09-29T07:53:22.632Z,2196
2017-09-29T07:54:03.179Z,2180
2017-09-29T07:54:43.720Z,2144
2017-09-29T07:55:24.261Z,2168
2017-09-29T07:56:04.792Z,2216
2017-09-29T07:56:45.340Z,2304
2017-09-29T07:57:25.889Z,2264
2017-09-29T07:58:06.418Z,2208
2017-09-29T07:58:46.956Z,2208
2017-09-29T07:59:27.495Z,2284
2017-09-29T08:00:08.039Z,2200
2017-09-29T08:00:48.586Z,2116
2017-09-29T08:01:29.110Z,2120
2017-09-29T08:02:09.660Z,2060
2017-09-29T08:02:50.202Z,2100
2017-09-29T08:03:30.745Z,2652
2017-09-29T08:04:11.297Z,2952
2017-09-29T08:04:51.823Z,3108
2017-09-29T08:05:32.363Z,2560
2017-09-29T08:06:12.903Z,2444
2017-09-29T08:06:53.443Z,2508
2017-09-29T08:07:33.985Z,2548
2017-09-29T08:08:14.530Z,2564
2017-09-29T08:08:55.072Z,2584
2017-09-29T08:09:35.615Z,2620
2017-09-29T08:10:16.159Z,2760
2017-09-29T08:10:56.694Z,2796
2017-09-29T08:11:37.274Z,2812
2017-09-29T08:12:17.781Z,2836
2017-09-29T08:12:58.319Z,2848
2017-09-29T08:13:38.859Z,2856
2017-09-29T08:14:19.402Z,2880
2017-09-29T08:14:59.941Z,2944
2017-09-29T08:15:40.488Z,2988
2017-09-29T08:16:21.033Z,2984
2017-09-29T08:17:01.577Z,2980
2017-09-29T08:17:42.108Z,3016
2017-09-29T08:18:22.654Z,3076
2017-09-29T08:19:03.199Z,3116
2017-09-29T08:19:43.719Z,3108
2017-09-29T08:20:24.255Z,3064
2017-09-29T08:21:04.794Z,3068
2017-09-29T08:21:45.345Z,3208
2017-09-29T08:22:25.887Z,3408
2017-09-29T08:23:06.426Z,3708
2017-09-29T08:23:46.975Z,7844
2017-09-29T08:24:27.517Z,15212
2017-09-29T08:25:08.064Z,20800
2017-09-29T08:25:48.589Z,17184
2017-09-29T08:26:29.132Z,10576
2017-09-29T08:27:09.675Z,8536
2017-09-29T08:27:50.218Z,6156
2017-09-29T08:28:30.762Z,4528
2017-09-29T08:29:11.304Z,3604
2017-09-29T08:29:51.851Z,3148
2017-09-29T08:30:32.394Z,3084
2017-09-29T08:31:12.937Z,3360
2017-09-29T08:31:53.472Z,3580
2017-09-29T08:32:34.002Z,3880
2017-09-29T08:33:14.540Z,4276
2017-09-29T08:33:55.083Z,4824
2017-09-29T08:34:35.628Z,5324
2017-09-29T08:35:16.170Z,5424
2017-09-29T08:35:56.729Z,5412
2017-09-29T08:36:37.274Z,5440
2017-09-29T08:37:17.813Z,5352
2017-09-29T08:37:58.343Z,5580
2017-09-29T08:38:38.889Z,6512
2017-09-29T08:39:19.439Z,7400
2017-09-29T08:39:59.971Z,8432
2017-09-29T08:40:40.519Z,9416
2017-09-29T08:41:21.047Z,9648
2017-09-29T08:42:01.589Z,12652
2017-09-29T08:42:42.129Z,9256
2017-09-29T08:43:22.702Z,9848
2017-09-29T08:44:03.242Z,7000
2017-09-29T08:44:43.783Z,6436
2017-09-29T08:45:24.312Z,6336
2017-09-29T08:46:04.860Z,5248
2017-09-29T08:46:45.397Z,6640
2017-09-29T08:47:25.941Z,6912
2017-09-29T08:48:06.486Z,12976
2017-09-29T08:48:47.028Z,11016
2017-09-29T08:49:27.565Z,9868
2017-09-29T08:50:08.102Z,11772
2017-09-29T08:50:48.645Z,15700
2017-09-29T08:51:29.188Z,15508
2017-09-29T08:52:09.736Z,14492
2017-09-29T08:52:50.281Z,14780
2017-09-29T08:53:30.817Z,15772
2017-09-29T08:54:11.355Z,18496
2017-09-29T08:54:51.897Z,23040
2017-09-29T08:55:32.438Z,27648
2017-09-29T08:56:12.967Z,34112
2017-09-29T08:56:53.507Z,35264
2017-09-29T08:57:34.047Z,33152
2017-09-29T08:58:14.597Z,29728
2017-09-29T08:58:55.146Z,27648
2017-09-29T08:59:35.697Z,32224
2017-09-29T09:00:16.245Z,31648
2017-09-29T09:00:56.790Z,32288
2017-09-29T09:01:37.334Z,33600
2017-09-29T09:02:17.869Z,33024
2017-09-29T09:02:58.416Z,37248
2017-09-29T09:03:38.965Z,37920
2017-09-29T09:04:19.513Z,38944
2017-09-29T09:05:00.084Z,37536
2017-09-29T09:05:40.624Z,39168
2017-09-29T09:06:21.149Z,38912
2017-09-29T09:07:01.676Z,39136
2017-09-29T09:07:42.220Z,37536
2017-09-29T09:08:22.766Z,39232
2017-09-29T09:09:03.310Z,40512
2017-09-29T09:09:43.864Z,41696
2017-09-29T09:10:24.410Z,37536
2017-09-29T09:11:04.961Z,37760
2017-09-29T09:11:45.512Z,36704
2017-09-29T09:12:26.065Z,34720
2017-09-29T09:13:06.613Z,27712
2017-09-29T09:13:47.166Z,25440
2017-09-29T09:14:27.704Z,18112
2017-09-29T09:15:08.254Z,17888
2017-09-29T09:15:48.803Z,20288
2017-09-29T09:16:29.354Z,24064
2017-09-29T09:17:09.904Z,28704
2017-09-29T09:17:50.426Z,43392
2017-09-29T09:18:30.964Z,44448
2017-09-29T09:19:11.511Z,42912
2017-09-29T09:19:52.040Z,44000
2017-09-29T09:20:32.584Z,44032
2017-09-29T09:21:13.136Z,43840
2017-09-29T09:21:53.675Z,43872
2017-09-29T09:22:34.214Z,44576
2017-09-29T09:23:14.763Z,43872
2017-09-29T09:23:55.306Z,43360
2017-09-29T09:24:35.856Z,43200
2017-09-29T09:25:16.402Z,43712
2017-09-29T09:25:56.939Z,42720
2017-09-29T09:26:37.481Z,41056
2017-09-29T09:27:18.021Z,40352
2017-09-29T09:27:58.580Z,41280
2017-09-29T09:28:39.123Z,40864
2017-09-29T09:29:19.654Z,40864
2017-09-29T09:30:00.190Z,41984
2017-09-29T09:30:40.737Z,42400
2017-09-29T09:31:21.283Z,42208
2017-09-29T09:32:01.840Z,43488